Etusivu
METAR-TAF:

METAR-TAF

Lentoasemat :

Estevan, Saskatchewan, Kanada

Leveyspiiri: 49-13N, Pituuspiiri: 102-58W, korkeus merenpinnasta: 572 m

Tämänhetkinen sää

Tämä raportti tehtiin 31 minuuttia sitten, kello 09.00 UTC
Tuuli 6 kn pohjoisesta
Lämpötila -8°C
Kosteus 92%
Ilmanpaine 1029 hPa
Näkyvyys: 14.5 km
Pilvistä 10000 ft:n korkeudessa

METAR: CYEN 250900Z AUTO 36006KT 9SM OVC100 M08/M09 A3039 RMK SLP328

Aika: 03:31 (09:31 UTC)

Sääennuste

Tämä raportti tehtiin 15 tuntia ja 53 minuuttia sitten, kello 17.38 UTC
Ennuste voimassa 24. päivästä klo 18 UTC - 24. päivään klo 24 UTC
Tuuli 8 kn idästä
Näkyvyys: 10 km
Hajonneita pilviä 7000 ft:n korkeudessa
Tulossa
24. päivästä klo 22 UTC - 24. päivään klo 24 UTC
Tuuli 10 kn pohjoisesta/koillisesta

TAF: CYEN 241738Z 2418/2424 09008KT P6SM BKN070 BECMG 2422/2424 03010KT RMK FCST BASED ON AUTO OBS. NXT FCST WILL BE ISSUED AT 251145Z

Säähavainnot ja -ennusteet yli 4000 lentoasemalta (METAR- ja TAF-raportit).

Käytössä olevat sääasemat on merkitty karttaan keltaisilla ja punaisilla pisteillä.

Aseta hiiri pisteen päälle nähdäksesi sääaseman nimen.

Klikkaa sitten nähdäksesi säähavainnot ja -ennusteet.

Kartan vaihtaminen: klikkaa mustalla rastilla varustettuja vihreitä pisteitä, niin voit zoomata sisään; viivalla varustettua vihreää pistettä, niin voit zoomata ulos tai vihreitä nuolia, niin pääset viereisille kartoille.


METAR-TAF: